Time;durP1;ratioP1;P1;durP2;ratioP2;P2;SDS_P1;SDS_P2;PMS_P1;PMS_P2;Temp;Humidity;BMP_temperature;BMP_pressure;BME280_temperature;BME280_humidity;BME280_pressure;Samples;Min_cycle;Max_cycle;Signal;HPM_P1;HPM_P2
2022/11/15 00:00:52;;;;;;;1999.90;999.90;;;;;;;9.31;100.00;98212.22;5102320;28;20035;-74
2022/11/15 00:03:19;;;;;;;1999.90;999.90;;;;;;;9.33;100.00;98206.50;5110991;28;20035;-74
2022/11/15 00:05:45;;;;;;;1999.90;999.90;;;;;;;9.38;100.00;98204.56;5110093;28;20024;-74
2022/11/15 00:08:11;;;;;;;1999.90;999.90;;;;;;;9.36;100.00;98201.31;5110455;28;20058;-76
2022/11/15 00:10:36;;;;;;;1999.90;999.90;;;;;;;9.38;100.00;98201.84;5110473;28;20026;-75
2022/11/15 00:13:07;;;;;;;1999.90;999.90;;;;;;;9.39;100.00;98198.00;5111103;28;20035;-75
2022/11/15 00:15:35;;;;;;;1999.90;999.90;;;;;;;9.45;100.00;98202.34;5110723;28;20490;-75
2022/11/15 00:18:01;;;;;;;1999.90;999.90;;;;;;;9.35;100.00;98202.41;5111356;28;20062;-76
2022/11/15 00:20:26;;;;;;;1999.90;999.90;;;;;;;9.30;100.00;98196.97;5110496;28;20495;-75
2022/11/15 00:22:51;;;;;;;1999.90;999.90;;;;;;;9.28;100.00;98196.41;5110745;28;20020;-75
2022/11/15 00:25:17;;;;;;;1999.90;999.90;;;;;;;9.23;100.00;98191.00;5110960;28;20092;-75
2022/11/15 00:27:42;;;;;;;1999.90;999.90;;;;;;;9.29;100.00;98189.06;5103965;28;20020;-75
2022/11/15 00:30:08;;;;;;;1999.90;999.90;;;;;;;9.34;100.00;98192.56;5103338;28;20434;-76
2022/11/15 00:32:33;;;;;;;1999.90;999.90;;;;;;;9.40;100.00;98190.63;5093896;28;20023;-75
2022/11/15 00:34:58;;;;;;;1999.90;999.90;;;;;;;9.40;100.00;98185.97;5110693;28;20414;-75
2022/11/15 00:37:24;;;;;;;1999.90;999.90;;;;;;;9.35;100.00;98180.56;5110786;28;20028;-75
2022/11/15 00:39:49;;;;;;;1999.90;999.90;;;;;;;9.39;100.00;98183.53;5110381;28;20085;-74
2022/11/15 00:42:14;;;;;;;1999.90;999.90;;;;;;;9.40;100.00;98179.69;5105154;28;20036;-75
2022/11/15 00:44:40;;;;;;;1999.90;999.90;;;;;;;9.35;100.00;98186.00;5099661;28;20027;-75
2022/11/15 00:47:05;;;;;;;1999.90;999.90;;;;;;;9.33;100.00;98174.56;5100275;28;20536;-75
2022/11/15 00:49:31;;;;;;;1999.90;999.90;;;;;;;9.38;100.00;98173.72;5088652;28;20064;-75
2022/11/15 00:51:56;;;;;;;1999.90;999.90;;;;;;;9.31;100.00;98176.75;5088471;28;20456;-74
2022/11/15 00:54:21;;;;;;;1999.90;999.90;;;;;;;9.34;100.00;98175.38;5102032;28;20539;-75
2022/11/15 00:56:46;;;;;;;1999.90;999.90;;;;;;;9.38;100.00;98179.16;5109320;28;20046;-75
2022/11/15 00:59:12;;;;;;;1999.90;999.90;;;;;;;9.39;100.00;98173.44;5113385;28;20012;-76
2022/11/15 01:01:37;;;;;;;1999.90;999.90;;;;;;;9.34;100.00;98170.72;5113347;28;20487;-74
2022/11/15 01:04:02;;;;;;;1999.90;999.90;;;;;;;9.33;100.00;98173.75;5091292;28;20430;-75
2022/11/15 01:06:28;;;;;;;1999.90;999.90;;;;;;;9.46;100.00;98163.00;5109038;28;20019;-75
2022/11/15 01:08:53;;;;;;;1999.90;999.90;;;;;;;9.45;100.00;98166.84;5088880;28;20035;-75
2022/11/15 01:11:18;;;;;;;1999.90;999.90;;;;;;;9.44;100.00;98162.47;5088464;28;20039;-76
2022/11/15 01:13:44;;;;;;;1999.90;999.90;;;;;;;9.46;100.00;98162.22;5089835;28;20024;-76
2022/11/15 01:16:13;;;;;;;1999.90;999.90;;;;;;;9.38;100.00;98162.78;5090132;28;20028;-75
2022/11/15 01:18:39;;;;;;;1999.90;999.90;;;;;;;9.34;100.00;98153.53;5090548;28;20070;-76
2022/11/15 01:21:16;;;;;;;1999.90;999.90;;;;;;;9.26;100.00;98145.94;5090269;28;20047;-75
2022/11/15 01:23:43;;;;;;;1999.90;999.90;;;;;;;9.36;100.00;98152.16;5093593;28;20028;-74
2022/11/15 01:26:12;;;;;;;1999.90;999.90;;;;;;;9.38;100.00;98154.59;5093856;28;20024;-75
2022/11/15 01:28:40;;;;;;;1999.90;999.90;;;;;;;9.35;100.00;98145.06;5093782;28;20056;-74
2022/11/15 01:31:11;;;;;;;1999.90;999.90;;;;;;;9.38;100.00;98144.50;5093619;28;20034;-74
2022/11/15 01:33:36;;;;;;;1999.90;999.90;;;;;;;9.28;100.00;98144.56;5094485;28;20024;-74
2022/11/15 01:36:07;;;;;;;1999.90;999.90;;;;;;;9.38;100.00;98140.94;5094715;28;20028;-75
2022/11/15 01:38:33;;;;;;;1999.90;999.90;;;;;;;9.32;100.00;98145.63;5079208;28;21835;-75
2022/11/15 01:40:58;;;;;;;1999.90;999.90;;;;;;;9.35;100.00;98134.16;5097405;28;20032;-74
2022/11/15 01:43:28;;;;;;;1999.90;999.90;;;;;;;9.36;100.00;98134.97;5096568;28;20126;-75
2022/11/15 01:46:32;;;;;;;1999.90;999.90;;;;;;;9.26;100.00;98135.03;5093909;28;20016;-74
2022/11/15 01:49:03;;;;;;;1999.90;999.90;;;;;;;9.32;100.00;98139.34;5090450;28;20040;-74
2022/11/15 01:51:32;;;;;;;1999.90;999.90;;;;;;;9.27;100.00;98134.72;5093126;28;20032;-74
2022/11/15 01:54:03;;;;;;;1999.90;999.90;;;;;;;9.23;100.00;98128.22;5096414;28;20027;-75
2022/11/15 01:56:32;;;;;;;1999.90;999.90;;;;;;;9.24;100.00;98121.66;5113347;28;20533;-74
2022/11/15 01:59:02;;;;;;;1999.90;999.90;;;;;;;9.15;100.00;98124.16;5113210;28;20023;-75
2022/11/15 02:01:31;;;;;;;1999.90;999.90;;;;;;;9.23;100.00;98117.31;5113209;28;20027;-74
2022/11/15 02:04:06;;;;;;;1999.90;999.90;;;;;;;9.26;100.00;98124.13;5113263;28;20444;-74
2022/11/15 02:06:32;;;;;;;1999.90;999.90;;;;;;;9.23;100.00;98119.22;5113065;28;20118;-75
2022/11/15 02:08:59;;;;;;;1999.90;999.90;;;;;;;9.14;100.00;98117.09;5113258;28;20107;-75
2022/11/15 02:11:25;;;;;;;1999.90;999.90;;;;;;;9.17;100.00;98126.63;5113187;28;20027;-75
2022/11/15 02:13:50;;;;;;;1999.90;999.90;;;;;;;9.23;100.00;98119.22;5113043;28;20030;-75
2022/11/15 02:16:34;;;;;;;1999.90;999.90;;;;;;;9.21;100.00;98122.22;5113103;28;20102;-75
2022/11/15 02:19:12;;;;;;;1999.90;999.90;;;;;;;9.15;100.00;98123.34;5113624;28;20055;-75
2022/11/15 02:21:56;;;;;;;1999.90;999.90;;;;;;;9.20;100.00;98111.59;5112864;28;20881;-74
2022/11/15 02:24:27;;;;;;;1999.90;999.90;;;;;;;9.15;100.00;98109.69;5112944;28;20032;-74
2022/11/15 02:27:04;;;;;;;1999.90;999.90;;;;;;;9.15;100.00;98104.25;5112856;28;20051;-75
2022/11/15 02:29:50;;;;;;;1999.90;999.90;;;;;;;9.20;100.00;98095.22;5112619;28;20024;-74
2022/11/15 02:32:29;;;;;;;1999.90;999.90;;;;;;;9.23;100.00;98094.66;5112593;28;20040;-75
2022/11/15 02:35:04;;;;;;;1999.90;999.90;;;;;;;9.26;100.00;98092.19;5112907;28;20059;-76
2022/11/15 02:37:44;;;;;;;1999.90;999.90;;;;;;;9.26;100.00;98083.16;5112982;28;20469;-75
2022/11/15 02:40:27;;;;;;;1999.90;999.90;;;;;;;9.06;100.00;98087.66;5113236;28;20442;-74
2022/11/15 02:45:48;;;;;;;1999.90;999.90;;;;;;;9.00;100.00;98087.97;5112523;28;20038;-75
2022/11/15 02:48:15;;;;;;;1999.90;999.90;;;;;;;8.94;100.00;98075.47;5113020;28;20028;-75
2022/11/15 02:50:42;;;;;;;1999.90;999.90;;;;;;;8.87;100.00;98080.41;5112492;28;20490;-75
2022/11/15 02:53:08;;;;;;;1999.90;999.90;;;;;;;8.93;100.00;98071.09;5112356;28;20096;-75
2022/11/15 02:55:41;;;;;;;1999.90;999.90;;;;;;;8.94;100.00;98061.81;5112371;28;20122;-75
2022/11/15 02:58:28;;;;;;;1999.90;999.90;;;;;;;9.11;100.00;98068.50;5112081;28;20028;-74
2022/11/15 03:01:07;;;;;;;1999.90;999.90;;;;;;;9.17;100.00;98061.13;5112106;28;20039;-75
2022/11/15 03:04:00;;;;;;;1999.90;999.90;;;;;;;9.16;100.00;98064.94;5112309;28;20430;-74
2022/11/15 03:06:39;;;;;;;1999.90;999.90;;;;;;;9.24;100.00;98066.28;5112459;28;20114;-75
2022/11/15 03:09:11;;;;;;;1999.90;999.90;;;;;;;9.26;100.00;98064.88;5099039;28;20425;-76
2022/11/15 03:11:44;;;;;;;1999.90;999.90;;;;;;;9.33;100.00;98057.19;5112806;28;20045;-75
2022/11/15 03:14:29;;;;;;;1999.90;999.90;;;;;;;9.35;100.00;98062.34;5112146;28;20119;-74
2022/11/15 03:17:25;;;;;;;1999.90;999.90;;;;;;;9.24;100.00;98061.59;5111762;28;20061;-74
2022/11/15 03:19:54;;;;;;;1999.90;999.90;;;;;;;9.22;100.00;98057.53;5087482;28;20112;-73
2022/11/15 03:22:22;;;;;;;1999.90;999.90;;;;;;;9.14;100.00;98045.34;5111739;28;20024;-74
2022/11/15 03:24:53;;;;;;;1999.90;999.90;;;;;;;9.19;100.00;98049.91;5111793;28;20639;-75
2022/11/15 03:27:23;;;;;;;1999.90;999.90;;;;;;;9.22;100.00;98052.06;5111512;28;20118;-75
2022/11/15 03:29:54;;;;;;;1999.90;999.90;;;;;;;9.11;100.00;98041.22;5111506;28;20092;-75
2022/11/15 03:32:28;;;;;;;1999.90;999.90;;;;;;;9.08;100.00;98049.19;5110495;28;20031;-75
2022/11/15 03:35:00;;;;;;;1999.90;999.90;;;;;;;9.11;100.00;98054.09;5111235;28;20433;-75
2022/11/15 03:37:59;;;;;;;1999.90;999.90;;;;;;;9.07;100.00;98058.47;5111082;28;20020;-75
2022/11/15 03:40:37;;;;;;;1999.90;999.90;;;;;;;9.09;100.00;98059.00;5086701;28;20499;-75
2022/11/15 03:43:08;;;;;;;1999.90;999.90;;;;;;;9.05;100.00;98057.94;5111320;28;20031;-74
2022/11/15 03:45:46;;;;;;;1999.90;999.90;;;;;;;9.07;100.00;98055.75;5110806;28;20043;-74
2022/11/15 03:48:24;;;;;;;1999.90;999.90;;;;;;;9.04;100.00;98050.84;5111637;28;20545;-75
2022/11/15 03:50:50;;;;;;;1999.90;999.90;;;;;;;9.06;100.00;98057.66;5111273;28;20032;-75
2022/11/15 03:53:16;;;;;;;1999.90;999.90;;;;;;;8.98;100.00;98054.72;5111236;28;20027;-75
2022/11/15 03:55:41;;;;;;;1999.90;999.90;;;;;;;9.02;100.00;98044.88;5111357;28;20031;-75
2022/11/15 03:58:06;;;;;;;1999.90;999.90;;;;;;;8.91;100.00;98046.00;5111238;28;20365;-76
2022/11/15 04:00:32;;;;;;;1999.90;999.90;;;;;;;8.93;100.00;98050.09;5110833;28;20025;-75
2022/11/15 04:02:57;;;;;;;1999.90;999.90;;;;;;;8.96;100.00;98044.06;5111184;28;20476;-76
2022/11/15 04:05:23;;;;;;;1999.90;999.90;;;;;;;8.96;100.00;98048.69;5111154;28;20476;-74
2022/11/15 04:07:48;;;;;;;1999.90;999.90;;;;;;;8.99;100.00;98048.94;5110851;28;20074;-75
2022/11/15 04:10:13;;;;;;;1999.90;999.90;;;;;;;8.92;100.00;98044.94;5111052;28;20024;-76
2022/11/15 04:12:42;;;;;;;1999.90;999.90;;;;;;;9.07;100.00;98039.38;5111243;28;20472;-75
2022/11/15 04:15:11;;;;;;;1999.90;999.90;;;;;;;9.03;100.00;98036.38;5110928;28;20030;-75
2022/11/15 04:17:45;;;;;;;1999.90;999.90;;;;;;;8.98;100.00;98036.44;5111148;28;20492;-75
2022/11/15 04:26:12;;;;;;;1999.90;999.90;;;;;;;9.05;100.00;98031.44;5111223;28;20085;-75
2022/11/15 04:29:33;;;;;;;1999.90;999.90;;;;;;;9.11;100.00;98029.53;5110930;28;20122;-75
2022/11/15 04:31:23;;;;;;;;;;;;;;;9.16;100.00;98029.47;5111440;28;20027;-76
2022/11/15 04:33:48;;;;;;;;;;;;;;;9.08;100.00;98030.09;5111297;28;20006;-74
2022/11/15 04:38:58;;;;;;;1999.90;999.90;;;;;;;9.08;100.00;98017.25;5108327;28;20773;-74
2022/11/15 04:41:23;;;;;;;1999.90;999.90;;;;;;;9.14;100.00;98029.78;5098740;28;20036;-74
2022/11/15 04:43:48;;;;;;;1999.90;999.90;;;;;;;9.02;100.00;98020.31;5110395;28;20073;-74
2022/11/15 04:46:13;;;;;;;1999.90;999.90;;;;;;;9.03;100.00;98021.94;5097637;28;20016;-74
2022/11/15 04:48:39;;;;;;;1999.90;999.90;;;;;;;8.88;100.00;98016.59;5090626;28;20078;-75
2022/11/15 04:51:04;;;;;;;1999.90;999.90;;;;;;;9.02;100.00;98021.09;5097787;28;20031;-75
2022/11/15 04:53:30;;;;;;;1999.90;999.90;;;;;;;9.00;100.00;98022.50;5110391;28;20027;-75
2022/11/15 04:55:55;;;;;;;1999.90;999.90;;;;;;;9.01;100.00;98013.22;5112604;28;20081;-75
2022/11/15 04:58:20;;;;;;;1999.90;999.90;;;;;;;8.99;100.00;98010.75;5114388;28;20115;-74
2022/11/15 05:00:46;;;;;;;1999.90;999.90;;;;;;;9.10;100.00;98012.34;5114310;28;20476;-74
2022/11/15 05:05:55;;;;;;;1999.90;999.90;;;;;;;9.09;100.00;98024.34;5114711;28;20046;-74
2022/11/15 05:08:20;;;;;;;1999.90;999.90;;;;;;;9.05;100.00;98009.63;5114132;28;20071;-75
2022/11/15 05:10:45;;;;;;;1999.90;999.90;;;;;;;9.14;100.00;98018.03;5114222;28;20118;-75
2022/11/15 05:13:11;;;;;;;1999.90;999.90;;;;;;;9.15;100.00;98019.66;5114110;28;20438;-74
2022/11/15 05:15:36;;;;;;;1999.90;999.90;;;;;;;9.20;100.00;98003.25;5114616;28;20023;-75
2022/11/15 05:18:01;;;;;;;1999.90;999.90;;;;;;;9.15;100.00;97998.63;5119984;28;20096;-78
2022/11/15 05:20:27;;;;;;;1999.90;999.90;;;;;;;9.18;100.00;98005.44;5118608;28;20032;-75
2022/11/15 05:22:55;;;;;;;1999.90;999.90;;;;;;;9.12;100.00;98004.66;5114182;28;20027;-74
2022/11/15 05:25:21;;;;;;;1999.90;999.90;;;;;;;9.15;100.00;98000.56;5113248;28;20070;-75
2022/11/15 05:27:47;;;;;;;1999.90;999.90;;;;;;;9.22;100.00;98003.78;5113705;28;20027;-75
2022/11/15 05:30:12;;;;;;;1999.90;999.90;;;;;;;9.22;100.00;97997.50;5113515;28;20031;-75
2022/11/15 05:32:37;;;;;;;1999.90;999.90;;;;;;;9.19;100.00;97990.69;5094795;28;20024;-76
2022/11/15 05:35:06;;;;;;;1999.90;999.90;;;;;;;9.17;100.00;97995.66;5106421;28;20023;-74
2022/11/15 05:37:32;;;;;;;1999.90;999.90;;;;;;;9.19;100.00;97992.63;5109315;28;20058;-75
2022/11/15 05:39:57;;;;;;;1999.90;999.90;;;;;;;9.10;100.00;97997.88;5093240;28;20063;-75
2022/11/15 05:42:25;;;;;;;1999.90;999.90;;;;;;;9.14;100.00;97986.13;5093160;28;20111;-75
2022/11/15 05:44:51;;;;;;;1999.90;999.90;;;;;;;9.12;100.00;97985.56;5093151;28;20475;-75
2022/11/15 05:47:24;;;;;;;1999.90;999.90;;;;;;;9.10;100.00;97993.22;5099716;28;20028;-74
2022/11/15 05:49:51;;;;;;;1999.90;999.90;;;;;;;9.01;100.00;97997.66;5113760;28;20027;-74
2022/11/15 05:52:22;;;;;;;1999.90;999.90;;;;;;;8.97;100.00;98001.25;5113176;28;20024;-75
2022/11/15 05:54:48;;;;;;;1999.90;999.90;;;;;;;9.00;100.00;98000.66;5094874;28;20440;-75
2022/11/15 05:57:13;;;;;;;1999.90;999.90;;;;;;;9.09;100.00;98001.69;5113294;28;20027;-76
2022/11/15 05:59:40;;;;;;;1999.90;999.90;;;;;;;9.18;100.00;98005.44;5113442;28;20453;-75
2022/11/15 06:02:06;;;;;;;1999.90;999.90;;;;;;;9.14;100.00;98015.31;5113180;28;20031;-76
2022/11/15 06:04:31;;;;;;;1999.90;999.90;;;;;;;9.15;100.00;98008.72;5115278;28;20039;-75
2022/11/15 06:06:58;;;;;;;1999.90;999.90;;;;;;;9.21;100.00;98012.25;5114158;28;20512;-78
2022/11/15 06:09:23;;;;;;;1999.90;999.90;;;;;;;9.13;100.00;98006.31;5118625;28;20115;-78
2022/11/15 06:11:49;;;;;;;1999.90;999.90;;;;;;;9.09;100.00;98007.97;5112848;28;20110;-75
2022/11/15 06:14:14;;;;;;;1999.90;999.90;;;;;;;9.07;100.00;98012.09;5098314;28;20024;-77
2022/11/15 06:16:40;;;;;;;1999.90;999.90;;;;;;;9.08;100.00;98014.50;5104330;28;20562;-81
2022/11/15 06:19:07;;;;;;;1999.90;999.90;;;;;;;9.09;100.00;98015.34;5114647;28;20034;-82
2022/11/15 06:21:32;;;;;;;1999.90;999.90;;;;;;;9.10;100.00;98014.25;5090343;28;20028;-87
2022/11/15 06:23:58;;;;;;;1999.90;999.90;;;;;;;9.17;100.00;98019.38;5105917;28;20575;-80
2022/11/15 06:26:23;;;;;;;1999.90;999.90;;;;;;;9.12;100.00;98014.75;5093379;28;20023;-82
2022/11/15 06:28:48;;;;;;;1999.90;999.90;;;;;;;9.15;100.00;98008.72;5083907;28;21336;-80
2022/11/15 06:31:14;;;;;;;1999.90;999.90;;;;;;;9.23;100.00;98021.78;5105210;28;20394;-75
2022/11/15 06:33:39;;;;;;;1999.90;999.90;;;;;;;9.23;100.00;98027.25;5102202;28;20031;-76
2022/11/15 06:36:08;;;;;;;1999.90;999.90;;;;;;;9.27;100.00;98033.75;5103826;28;20028;-75
2022/11/15 06:38:34;;;;;;;1999.90;999.90;;;;;;;9.37;100.00;98033.66;5102560;28;20054;-75
2022/11/15 06:41:04;;;;;;;1999.90;999.90;;;;;;;9.41;100.00;98017.53;5100413;28;20035;-75
2022/11/15 06:43:29;;;;;;;1999.90;999.90;;;;;;;9.42;100.00;98030.91;5096058;28;20024;-76
2022/11/15 06:45:55;;;;;;;1999.90;999.90;;;;;;;9.48;100.00;98024.31;5092162;28;20024;-75
2022/11/15 06:48:20;;;;;;;1999.90;999.90;;;;;;;9.54;100.00;98027.81;5091912;28;20562;-75
2022/11/15 06:50:53;;;;;;;1999.90;999.90;;;;;;;9.63;100.00;98021.44;5092197;28;20016;-75
2022/11/15 06:53:18;;;;;;;1999.90;999.90;;;;;;;9.67;100.00;98032.59;5091431;28;20039;-75
2022/11/15 06:55:44;;;;;;;1999.90;999.90;;;;;;;9.71;100.00;98032.84;5091763;28;20024;-75
2022/11/15 06:58:09;;;;;;;1999.90;999.90;;;;;;;9.72;100.00;98029.00;5091372;28;20069;-75
2022/11/15 07:00:34;;;;;;;1999.90;999.90;;;;;;;9.81;100.00;98027.25;5091595;28;20115;-75
2022/11/15 07:03:00;;;;;;;1999.90;999.90;;;;;;;9.80;100.00;98033.84;5093195;28;20036;-76
2022/11/15 07:05:26;;;;;;;1999.90;999.90;;;;;;;9.84;100.00;98027.50;5094967;28;20032;-76
2022/11/15 07:07:57;;;;;;;1999.90;999.90;;;;;;;9.79;100.00;98032.22;5096547;28;20052;-75
2022/11/15 07:10:24;;;;;;;1999.90;999.90;;;;;;;9.88;100.00;98022.28;5093036;28;20431;-75
2022/11/15 07:12:50;;;;;;;1999.90;999.90;;;;;;;9.97;100.00;98031.47;5091725;28;20028;-75
2022/11/15 07:15:17;;;;;;;1999.90;999.90;;;;;;;9.97;100.00;98009.63;5091532;28;20017;-75
2022/11/15 07:17:42;;;;;;;1999.90;999.90;;;;;;;10.02;100.00;98021.28;5102791;28;21718;-76
2022/11/15 07:20:09;;;;;;;1999.90;999.90;;;;;;;10.13;100.00;98027.47;5104934;28;20063;-75
2022/11/15 07:22:34;;;;;;;1999.90;999.90;;;;;;;10.26;100.00;98035.00;5102863;28;20027;-77
2022/11/15 07:24:59;;;;;;;1999.90;999.90;;;;;;;10.35;100.00;98036.00;5102748;28;20044;-80
2022/11/15 07:27:25;;;;;;;1999.90;999.90;;;;;;;10.41;100.00;98040.28;5110818;28;20038;-80
2022/11/15 07:29:50;;;;;;;1999.90;999.90;;;;;;;10.42;100.00;98036.47;5102084;28;20102;-76
2022/11/15 07:32:15;;;;;;;1999.90;999.90;;;;;;;10.49;100.00;98028.72;5102859;28;20043;-76
2022/11/15 07:34:41;;;;;;;1999.90;999.90;;;;;;;10.53;100.00;98035.22;5098403;28;20065;-76
2022/11/15 07:37:06;;;;;;;1999.90;999.90;;;;;;;10.58;100.00;98037.91;5102024;28;20517;-75
2022/11/15 07:39:31;;;;;;;1999.90;999.90;;;;;;;10.70;100.00;98032.81;5101775;28;20063;-75
2022/11/15 07:42:52;;;;;;;1999.90;999.90;;;;;;;10.83;100.00;98034.00;5099231;28;20115;-77
2022/11/15 07:44:42;;;;;;;1999.90;999.90;;;;;;;10.73;100.00;98028.69;5098500;28;20031;-75
2022/11/15 07:47:07;;;;;;;1999.90;999.90;;;;;;;10.86;100.00;98027.13;5100428;28;20147;-75
2022/11/15 07:49:32;;;;;;;1999.90;999.90;;;;;;;10.81;100.00;98030.75;5100209;28;20032;-75
2022/11/15 07:51:58;;;;;;;1999.90;999.90;;;;;;;10.79;100.00;98027.50;5098773;28;20714;-75
2022/11/15 07:54:23;;;;;;;1999.90;999.90;;;;;;;10.77;100.00;98027.78;5100704;28;20484;-74
2022/11/15 07:56:48;;;;;;;1999.90;999.90;;;;;;;10.72;100.00;98022.38;5098322;28;20459;-76
2022/11/15 07:59:14;;;;;;;1999.90;999.90;;;;;;;10.79;100.00;98027.50;5090836;28;20028;-75
2022/11/15 08:01:39;;;;;;;1999.90;999.90;;;;;;;10.73;100.00;98013.09;5090661;28;20028;-75
2022/11/15 08:04:04;;;;;;;1999.90;999.90;;;;;;;10.82;100.00;98020.63;5098227;28;20076;-77
2022/11/15 08:06:30;;;;;;;1999.90;999.90;;;;;;;10.75;100.00;98023.72;5102381;28;20115;-76
2022/11/15 08:08:55;;;;;;;1999.90;999.90;;;;;;;10.39;100.00;98006.97;5106462;28;20059;-75
2022/11/15 08:11:20;;;;;;;1999.90;999.90;;;;;;;10.23;100.00;98012.91;5099241;28;20061;-80
2022/11/15 08:13:46;;;;;;;1999.90;999.90;;;;;;;10.43;100.00;98012.69;5103990;28;20107;-76
2022/11/15 08:16:11;;;;;;;1999.90;999.90;;;;;;;10.44;100.00;98009.63;5101746;28;20111;-76
2022/11/15 08:18:37;;;;;;;1999.90;999.90;;;;;;;10.31;100.00;98007.59;5105268;28;20026;-75
2022/11/15 08:21:03;;;;;;;1999.90;999.90;;;;;;;10.42;100.00;98005.56;5108932;28;20075;-75
2022/11/15 08:23:28;;;;;;;1999.90;999.90;;;;;;;10.55;100.00;98010.31;5101977;28;20034;-75
2022/11/15 08:25:59;;;;;;;1999.90;999.90;;;;;;;10.56;100.00;97999.06;5109607;28;20077;-76
2022/11/15 08:28:24;;;;;;;1999.90;999.90;;;;;;;10.55;100.00;97997.47;5109648;28;20019;-76
2022/11/15 08:30:50;;;;;;;1999.90;999.90;;;;;;;10.80;100.00;97990.81;5094228;28;20023;-76
2022/11/15 08:33:15;;;;;;;1999.90;999.90;;;;;;;11.05;100.00;97992.38;5114610;28;20492;-75
2022/11/15 08:35:42;;;;;;;1999.90;999.90;;;;;;;11.17;100.00;97995.47;5114480;28;20024;-76
2022/11/15 08:38:07;;;;;;;1999.90;999.90;;;;;;;11.25;100.00;98000.25;5115204;28;20035;-76
2022/11/15 08:40:33;;;;;;;1999.90;999.90;;;;;;;11.17;100.00;97995.47;5114846;28;20039;-75
2022/11/15 08:43:02;;;;;;;1999.90;999.90;;;;;;;11.24;100.00;98001.38;5114974;28;20020;-76
2022/11/15 08:45:27;;;;;;;1999.90;999.90;;;;;;;11.27;100.00;97998.03;5114958;28;20032;-76
2022/11/15 08:47:53;;;;;;;1999.90;999.90;;;;;;;11.28;100.00;97994.16;5114877;28;20365;-77
2022/11/15 08:50:18;;;;;;;1999.90;999.90;;;;;;;11.37;100.00;97988.84;5114629;28;20495;-75
2022/11/15 08:52:44;;;;;;;1999.90;999.90;;;;;;;11.54;100.00;97989.91;5114713;28;20036;-76
2022/11/15 08:55:09;;;;;;;1999.90;999.90;;;;;;;11.67;100.00;98005.56;5114727;28;20032;-76
2022/11/15 08:57:34;;;;;;;1999.90;999.90;;;;;;;11.70;100.00;98010.47;5114834;28;20031;-76
2022/11/15 09:00:00;;;;;;;1999.90;999.90;;;;;;;11.71;100.00;98011.28;5114362;28;20019;-75
2022/11/15 09:02:25;;;;;;;1999.90;999.90;;;;;;;11.76;100.00;98008.44;5114531;28;20178;-76
2022/11/15 09:04:50;;;;;;;1999.90;999.90;;;;;;;11.84;100.00;98004.22;5114370;28;20031;-76
2022/11/15 09:07:16;;;;;;;1999.90;999.90;;;;;;;11.84;100.00;98013.22;5114243;28;20484;-76
2022/11/15 09:09:41;;;;;;;1999.90;999.90;;;;;;;11.72;100.00;98013.72;5114826;28;20019;-76
2022/11/15 09:12:07;;;;;;;1999.90;999.90;;;;;;;11.76;100.00;98009.25;5114599;28;20102;-75
2022/11/15 09:14:33;;;;;;;1999.90;999.90;;;;;;;11.79;100.00;98008.66;5114577;28;20407;-76
2022/11/15 09:16:58;;;;;;;1999.90;999.90;;;;;;;11.82;100.00;98002.56;5096207;28;20031;-76
2022/11/15 09:19:24;;;;;;;1999.90;999.90;;;;;;;11.78;100.00;98007.03;5114424;28;20027;-75
2022/11/15 09:21:49;;;;;;;1999.90;999.90;;;;;;;11.70;100.00;97994.03;5114332;28;20039;-76
2022/11/15 09:24:15;;;;;;;1999.90;999.90;;;;;;;12.14;100.00;97992.66;5114677;28;20546;-75
2022/11/15 09:26:40;;;;;;;1999.90;999.90;;;;;;;12.72;100.00;97998.28;5114647;28;20020;-76
2022/11/15 09:29:06;;;;;;;1999.90;999.90;;;;;;;13.04;100.00;97994.53;5115178;28;20038;-76
2022/11/15 09:31:31;;;;;;;1999.90;999.90;;;;;;;13.07;100.00;97999.41;5115938;28;20511;-76
2022/11/15 09:33:57;;;;;;;1999.90;999.90;;;;;;;13.48;100.00;97989.09;5116351;28;20475;-78
2022/11/15 09:36:22;;;;;;;1999.90;999.90;;;;;;;14.04;100.00;97998.63;5118993;28;20492;-77
2022/11/15 09:38:48;;;;;;;1999.90;999.90;;;;;;;14.49;100.00;97997.41;5117118;28;20076;-76
2022/11/15 09:41:14;;;;;;;1999.90;999.90;;;;;;;14.30;100.00;97989.38;5113607;27;20040;-75
2022/11/15 09:44:06;;;;;;;1999.90;999.90;;;;;;;13.40;100.00;98000.88;5112947;28;20089;-76
2022/11/15 09:46:55;;;;;;;1999.90;999.90;;;;;;;13.38;100.00;97994.84;5113652;28;20031;-76
2022/11/15 09:49:21;;;;;;;1999.90;999.90;;;;;;;13.18;100.00;97989.88;5113697;28;20031;-76
2022/11/15 09:51:52;;;;;;;1999.90;999.90;;;;;;;13.14;100.00;97986.09;5113567;28;20020;-76
2022/11/15 09:54:29;;;;;;;1999.90;999.90;;;;;;;13.15;100.00;97974.81;5113510;28;20028;-76
2022/11/15 09:57:03;;;;;;;1999.90;999.90;;;;;;;13.19;100.00;97977.72;5095045;28;20497;-76
2022/11/15 09:59:43;;;;;;;1999.90;999.90;;;;;;;13.14;100.00;97966.88;5113547;28;20045;-76
2022/11/15 10:02:33;;;;;;;1999.90;999.90;;;;;;;13.10;100.00;97965.88;5113592;28;20050;-75
2022/11/15 10:05:00;;;;;;;1999.90;999.90;;;;;;;13.21;100.00;97967.25;5113285;28;20031;-76
2022/11/15 10:07:48;;;;;;;1999.90;999.90;;;;;;;13.06;100.00;97962.13;5089986;28;20047;-75
2022/11/15 10:10:30;;;;;;;1999.90;999.90;;;;;;;12.58;100.00;97951.69;5073164;28;20028;-77
2022/11/15 10:12:55;;;;;;;1999.90;999.90;;;;;;;12.43;100.00;97953.94;5072775;28;20067;-75
2022/11/15 10:15:22;;;;;;;1999.90;999.90;;;;;;;12.47;100.00;97938.50;5072583;28;20425;-77
2022/11/15 10:18:21;;;;;;;1999.90;999.90;;;;;;;12.20;100.00;97936.59;5072219;28;20056;-75
2022/11/15 10:20:55;;;;;;;1999.90;999.90;;;;;;;12.33;100.00;97942.06;5072625;28;20036;-76
2022/11/15 10:23:22;;;;;;;1999.90;999.90;;;;;;;12.30;100.00;97936.38;5072410;28;20021;-76
2022/11/15 10:25:52;;;;;;;1999.90;999.90;;;;;;;12.16;100.00;97935.56;5072164;28;20020;-76
2022/11/15 10:28:29;;;;;;;1999.90;999.90;;;;;;;12.06;100.00;97917.41;5072274;28;20027;-76
2022/11/15 10:30:57;;;;;;;1999.90;999.90;;;;;;;12.16;100.00;97919.13;5072320;28;20496;-75
2022/11/15 10:33:37;;;;;;;1999.90;999.90;;;;;;;12.27;100.00;97917.81;5072480;28;20469;-75
2022/11/15 10:36:09;;;;;;;1999.90;999.90;;;;;;;12.48;100.00;97910.75;5072254;28;20120;-77
2022/11/15 10:38:49;;;;;;;1999.90;999.90;;;;;;;12.80;100.00;97918.78;5072117;28;20104;-76
2022/11/15 10:41:31;;;;;;;1999.90;999.90;;;;;;;12.73;100.00;97912.91;5072291;28;20119;-75
2022/11/15 10:44:21;;;;;;;1999.90;999.90;;;;;;;13.22;100.00;97900.19;5071918;28;20477;-76
2022/11/15 10:47:08;;;;;;;1999.90;999.90;;;;;;;13.27;100.00;97894.59;5071952;28;20032;-74
2022/11/15 10:49:34;;;;;;;1999.90;999.90;;;;;;;13.61;100.00;97889.28;5061541;28;20053;-75
2022/11/15 10:52:04;;;;;;;1999.90;999.90;;;;;;;13.53;100.00;97884.56;5071971;28;20036;-74
2022/11/15 10:54:34;;;;;;;1999.90;999.90;;;;;;;13.24;100.00;97884.22;5071721;28;20098;-75
2022/11/15 10:57:05;;;;;;;1999.90;999.90;;;;;;;13.35;100.00;97871.84;5072173;28;20035;-74
2022/11/15 10:59:35;;;;;;;1999.90;999.90;;;;;;;13.37;100.00;97867.66;5072092;28;20028;-76
2022/11/15 11:02:01;;;;;;;1999.90;999.90;;;;;;;13.23;100.00;97860.63;5071811;28;20024;-75
2022/11/15 11:04:26;;;;;;;1999.90;999.90;;;;;;;12.97;100.00;97859.66;5071880;28;20492;-74
2022/11/15 11:06:57;;;;;;;1999.90;999.90;;;;;;;13.36;100.00;97859.72;5076248;28;20051;-76
2022/11/15 11:09:35;;;;;;;1999.90;999.90;;;;;;;13.62;100.00;97852.44;5091993;28;20384;-75
2022/11/15 11:12:02;;;;;;;1999.90;999.90;;;;;;;13.53;100.00;97848.84;5091543;28;20546;-74
2022/11/15 11:14:32;;;;;;;1999.90;999.90;;;;;;;13.60;100.00;97854.66;5091487;28;20508;-76